createdAt,value
2019-06-26T00:00:40.045Z,49.86
2019-06-26T00:03:06.693Z,50.00
2019-06-26T00:05:33.329Z,49.95
2019-06-26T00:07:59.958Z,50.01
2019-06-26T00:10:26.625Z,49.92
2019-06-26T00:12:53.258Z,49.99
2019-06-26T00:15:23.037Z,49.92
2019-06-26T00:17:49.673Z,49.89
2019-06-26T00:20:16.329Z,49.91
2019-06-26T00:22:42.969Z,49.80
2019-06-26T00:25:09.673Z,49.82
2019-06-26T00:27:36.274Z,49.85
2019-06-26T00:30:02.958Z,49.92
2019-06-26T00:32:29.578Z,49.66
2019-06-26T00:34:56.305Z,49.97
2019-06-26T00:37:22.931Z,49.91
2019-06-26T00:39:49.594Z,49.92
2019-06-26T00:42:16.284Z,49.94
2019-06-26T00:44:42.879Z,49.82
2019-06-26T00:47:09.514Z,49.75
2019-06-26T00:49:36.167Z,49.89
2019-06-26T00:52:02.870Z,49.90
2019-06-26T00:54:29.474Z,49.93
2019-06-26T00:56:56.119Z,49.96
2019-06-26T00:59:22.768Z,49.77
2019-06-26T01:01:49.406Z,49.94
2019-06-26T01:04:16.190Z,49.86
2019-06-26T01:06:42.828Z,49.86
2019-06-26T01:09:09.545Z,49.97
2019-06-26T01:11:36.159Z,49.85
2019-06-26T01:14:02.801Z,49.89
2019-06-26T01:16:29.494Z,49.81
2019-06-26T01:18:56.101Z,49.91
2019-06-26T01:21:22.746Z,49.85
2019-06-26T01:23:49.380Z,49.82
2019-06-26T01:26:16.026Z,49.93
2019-06-26T01:28:42.695Z,49.83
2019-06-26T01:31:09.327Z,49.87
2019-06-26T01:33:35.975Z,49.84
2019-06-26T01:36:02.638Z,49.90
2019-06-26T01:38:29.259Z,49.98
2019-06-26T01:40:55.894Z,49.93
2019-06-26T01:43:22.534Z,49.86
2019-06-26T01:45:49.222Z,49.82
2019-06-26T01:48:15.881Z,49.93
2019-06-26T01:50:42.565Z,49.79
2019-06-26T01:53:09.202Z,49.90
2019-06-26T01:55:35.845Z,49.96
2019-06-26T01:58:02.529Z,49.84
2019-06-26T02:00:29.139Z,49.84
2019-06-26T02:02:55.807Z,49.94
2019-06-26T02:05:22.437Z,49.70
2019-06-26T02:07:49.091Z,49.88
2019-06-26T02:12:42.462Z,49.87
2019-06-26T02:15:09.086Z,49.86
2019-06-26T02:17:35.722Z,49.84
2019-06-26T02:20:02.553Z,49.81
2019-06-26T02:22:29.216Z,49.84
2019-06-26T02:24:55.840Z,49.84
2019-06-26T02:27:22.522Z,49.73
2019-06-26T02:29:49.293Z,49.81
2019-06-26T02:32:15.798Z,49.95
2019-06-26T02:34:42.448Z,49.89
2019-06-26T02:37:09.116Z,49.82
2019-06-26T02:39:35.759Z,49.89
2019-06-26T02:42:02.405Z,49.88
2019-06-26T02:44:29.049Z,49.84
2019-06-26T02:47:17.269Z,49.92
2019-06-26T02:49:22.354Z,49.88
2019-06-26T02:51:48.991Z,49.93
2019-06-26T02:54:15.687Z,49.93
2019-06-26T02:56:42.295Z,49.96
2019-06-26T02:59:09.000Z,49.93
2019-06-26T03:01:35.605Z,49.89
2019-06-26T03:04:02.402Z,49.84
2019-06-26T03:06:28.934Z,49.81
2019-06-26T03:08:55.574Z,49.89
2019-06-26T03:11:22.227Z,49.88
2019-06-26T03:13:48.863Z,49.81
2019-06-26T03:16:15.508Z,49.58
2019-06-26T03:18:42.165Z,49.83
2019-06-26T03:21:08.806Z,49.70
2019-06-26T03:23:35.460Z,49.65
2019-06-26T03:26:02.100Z,49.50
2019-06-26T03:28:28.750Z,49.72
2019-06-26T03:33:22.063Z,49.56
2019-06-26T03:35:48.717Z,49.67
2019-06-26T03:38:15.961Z,49.79
2019-06-26T03:40:42.555Z,49.84
2019-06-26T03:43:09.191Z,49.81
2019-06-26T03:45:35.872Z,49.93
2019-06-26T03:48:02.724Z,49.57
2019-06-26T03:50:29.389Z,48.76
2019-06-26T03:52:56.027Z,48.83
2019-06-26T03:55:22.660Z,48.81
2019-06-26T03:57:49.315Z,48.50
2019-06-26T04:00:15.951Z,49.47
2019-06-26T04:02:42.621Z,49.28
2019-06-26T04:07:35.895Z,50.30
2019-06-26T04:10:02.530Z,50.33
2019-06-26T04:12:29.179Z,50.63
2019-06-26T04:14:55.822Z,50.43
2019-06-26T04:17:22.567Z,50.63
2019-06-26T04:19:49.125Z,49.64
2019-06-26T04:22:15.766Z,49.16
2019-06-26T04:24:42.415Z,49.10
2019-06-26T04:27:09.057Z,49.24
2019-06-26T04:29:35.736Z,49.16
2019-06-26T04:32:02.368Z,48.97
2019-06-26T04:34:29.011Z,48.54
2019-06-26T04:36:55.649Z,48.02
2019-06-26T04:39:22.289Z,47.83
2019-06-26T04:41:48.982Z,47.60
2019-06-26T04:44:15.639Z,48.35
2019-06-26T04:46:42.253Z,48.23
2019-06-26T04:49:08.898Z,48.35
2019-06-26T04:51:35.529Z,49.24
2019-06-26T04:54:02.203Z,49.39
2019-06-26T04:56:28.837Z,49.05
2019-06-26T04:58:55.515Z,48.72
2019-06-26T05:01:22.165Z,48.16
2019-06-26T05:03:48.800Z,48.32
2019-06-26T05:06:15.439Z,48.93
2019-06-26T05:08:42.098Z,48.79
2019-06-26T05:11:12.351Z,48.51
2019-06-26T05:13:35.409Z,48.39
2019-06-26T05:16:14.407Z,48.82
2019-06-26T05:18:28.736Z,49.79
2019-06-26T05:20:55.394Z,49.84
2019-06-26T05:23:22.050Z,49.97
2019-06-26T05:28:15.370Z,48.83
2019-06-26T05:30:42.096Z,49.49
2019-06-26T05:33:08.676Z,49.21
2019-06-26T05:35:35.514Z,49.05
2019-06-26T05:38:02.004Z,48.59
2019-06-26T05:40:28.646Z,48.33
2019-06-26T05:42:55.292Z,48.30
2019-06-26T05:45:21.942Z,47.82
2019-06-26T05:50:15.237Z,47.37
2019-06-26T05:52:42.973Z,47.21
2019-06-26T05:55:08.506Z,46.78
2019-06-26T05:57:35.169Z,46.65
2019-06-26T06:02:31.794Z,47.45
2019-06-26T06:04:58.437Z,47.90
2019-06-26T06:07:25.082Z,48.40
2019-06-26T06:09:51.799Z,48.21
2019-06-26T06:12:18.445Z,48.66
2019-06-26T06:14:45.106Z,48.71
2019-06-26T06:17:11.749Z,48.36
2019-06-26T06:19:38.402Z,48.15
2019-06-26T06:22:05.055Z,48.12
2019-06-26T06:24:31.743Z,48.19
2019-06-26T06:26:58.408Z,47.77
2019-06-26T06:29:25.050Z,47.89
2019-06-26T06:31:51.699Z,47.81
2019-06-26T06:34:18.371Z,47.67
2019-06-26T06:36:45.041Z,47.34
2019-06-26T06:39:11.718Z,46.98
2019-06-26T06:41:38.368Z,46.14
2019-06-26T06:44:05.027Z,46.38
2019-06-26T06:46:31.687Z,47.28
2019-06-26T06:48:58.343Z,47.90
2019-06-26T06:51:25.012Z,47.94
2019-06-26T06:53:51.664Z,48.57
2019-06-26T06:56:18.320Z,48.91
2019-06-26T06:58:44.985Z,49.15
2019-06-26T07:01:11.644Z,49.00
2019-06-26T07:03:38.391Z,48.75
2019-06-26T07:06:04.963Z,49.00
2019-06-26T07:08:31.627Z,48.74
2019-06-26T07:10:58.260Z,48.85
2019-06-26T07:13:24.910Z,48.86
2019-06-26T07:15:51.615Z,49.13
2019-06-26T07:18:18.258Z,49.92
2019-06-26T07:20:44.933Z,50.47
2019-06-26T07:23:11.580Z,50.19
2019-06-26T07:25:38.241Z,49.71
2019-06-26T07:28:05.021Z,51.02
2019-06-26T07:30:31.640Z,50.03
2019-06-26T07:32:58.291Z,50.00
2019-06-26T07:35:24.969Z,49.70
2019-06-26T07:37:51.636Z,50.00
2019-06-26T07:40:18.301Z,49.78
2019-06-26T07:42:44.931Z,49.72
2019-06-26T07:45:11.595Z,49.53
2019-06-26T07:47:43.625Z,48.83
2019-06-26T07:50:04.936Z,48.74
2019-06-26T07:52:31.594Z,48.59
2019-06-26T07:57:24.917Z,48.51
2019-06-26T07:59:51.577Z,47.85
2019-06-26T08:02:18.233Z,48.06
2019-06-26T08:04:44.904Z,47.99
2019-06-26T08:07:11.604Z,48.03
2019-06-26T08:09:38.271Z,47.85
2019-06-26T08:12:05.231Z,47.70
2019-06-26T08:14:31.868Z,47.66
2019-06-26T08:16:58.505Z,47.71
2019-06-26T08:19:25.200Z,47.48
2019-06-26T08:21:51.860Z,47.43
2019-06-26T08:24:18.525Z,47.35
2019-06-26T08:26:45.185Z,47.20
2019-06-26T08:31:38.512Z,46.98
2019-06-26T08:34:05.160Z,46.82
2019-06-26T08:36:31.826Z,46.37
2019-06-26T08:38:58.524Z,46.52
2019-06-26T08:41:25.162Z,46.35
2019-06-26T08:43:51.824Z,46.58
2019-06-26T08:46:18.531Z,46.53
2019-06-26T08:48:45.173Z,46.71
2019-06-26T08:51:11.829Z,46.53
2019-06-26T08:53:38.484Z,46.85
2019-06-26T08:56:05.149Z,46.24
2019-06-26T08:58:31.806Z,46.15
2019-06-26T09:00:58.543Z,46.10
2019-06-26T09:03:25.126Z,46.02
2019-06-26T09:05:51.781Z,45.85
2019-06-26T09:08:18.551Z,45.96
2019-06-26T09:10:45.457Z,45.98
2019-06-26T09:13:11.756Z,45.74
2019-06-26T09:15:38.436Z,45.71
2019-06-26T09:18:05.110Z,45.68
2019-06-26T09:20:31.773Z,45.47
2019-06-26T09:22:58.424Z,45.37
2019-06-26T09:25:25.087Z,45.30
2019-06-26T09:27:51.755Z,45.33
2019-06-26T09:30:18.416Z,45.19
2019-06-26T09:32:45.074Z,44.95
2019-06-26T09:35:11.761Z,44.83
2019-06-26T09:37:38.396Z,44.79
2019-06-26T09:40:05.085Z,44.92
2019-06-26T09:42:31.726Z,44.81
2019-06-26T09:44:58.376Z,44.82
2019-06-26T09:47:25.048Z,44.99
2019-06-26T09:49:51.706Z,45.13
2019-06-26T09:52:18.372Z,45.24
2019-06-26T09:54:45.063Z,45.27
2019-06-26T09:57:11.721Z,45.14
2019-06-26T09:59:38.386Z,45.41
2019-06-26T10:02:05.040Z,45.32
2019-06-26T10:04:31.711Z,45.06
2019-06-26T10:06:58.378Z,44.66
2019-06-26T10:09:25.117Z,44.96
2019-06-26T10:11:51.704Z,45.12
2019-06-26T10:14:18.387Z,45.23
2019-06-26T10:16:45.058Z,45.03
2019-06-26T10:19:11.715Z,45.27
2019-06-26T10:21:38.387Z,45.14
2019-06-26T10:24:05.071Z,45.01
2019-06-26T10:26:32.676Z,45.22
2019-06-26T10:28:58.433Z,44.87
2019-06-26T10:31:25.099Z,45.16
2019-06-26T10:33:51.762Z,44.72
2019-06-26T10:36:18.516Z,45.15
2019-06-26T10:38:45.209Z,45.08
2019-06-26T10:41:11.882Z,45.41
2019-06-26T10:43:38.587Z,45.54
2019-06-26T10:46:05.238Z,45.36
2019-06-26T10:48:31.893Z,45.25
2019-06-26T10:50:59.205Z,45.35
2019-06-26T10:53:25.217Z,44.95
2019-06-26T10:55:51.856Z,44.96
2019-06-26T11:00:45.238Z,45.18
2019-06-26T11:03:11.926Z,45.16
2019-06-26T11:05:38.562Z,45.03
2019-06-26T11:08:06.459Z,45.14
2019-06-26T11:10:31.890Z,45.07
2019-06-26T11:12:58.536Z,45.03
2019-06-26T11:15:25.200Z,45.07
2019-06-26T11:17:51.853Z,45.25
2019-06-26T11:20:18.514Z,45.50
2019-06-26T11:22:45.151Z,45.36
2019-06-26T11:25:11.814Z,45.61
2019-06-26T11:27:38.473Z,45.62
2019-06-26T11:30:05.149Z,45.35
2019-06-26T11:32:31.804Z,45.45
2019-06-26T11:34:58.473Z,45.41
2019-06-26T11:37:25.183Z,45.32
2019-06-26T11:39:51.879Z,45.25
2019-06-26T11:42:18.556Z,44.70
2019-06-26T11:44:45.201Z,44.84
2019-06-26T11:47:11.820Z,44.99
2019-06-26T11:49:38.494Z,44.99
2019-06-26T11:52:05.155Z,44.73
2019-06-26T11:56:58.452Z,44.75
2019-06-26T11:59:25.121Z,44.67
2019-06-26T12:01:51.784Z,44.63
2019-06-26T12:04:18.444Z,44.57
2019-06-26T12:06:46.296Z,44.84
2019-06-26T12:09:11.745Z,44.75
2019-06-26T12:11:38.407Z,44.54
2019-06-26T12:14:05.053Z,44.38
2019-06-26T12:16:31.784Z,44.52
2019-06-26T12:18:58.408Z,44.58
2019-06-26T12:21:25.071Z,44.54
2019-06-26T12:23:51.738Z,44.47
2019-06-26T12:26:18.415Z,44.21
2019-06-26T12:28:45.053Z,44.36
2019-06-26T12:31:11.718Z,44.40
2019-06-26T12:33:38.370Z,44.32
2019-06-26T12:36:05.066Z,44.39
2019-06-26T12:38:31.712Z,44.59
2019-06-26T12:40:58.372Z,44.61
2019-06-26T12:43:25.042Z,44.54
2019-06-26T12:45:51.695Z,44.51
2019-06-26T12:48:18.336Z,44.65
2019-06-26T12:53:11.648Z,44.21
2019-06-26T12:55:38.343Z,44.13
2019-06-26T12:58:13.057Z,44.10
2019-06-26T13:00:31.751Z,44.30
2019-06-26T13:02:58.428Z,44.56
2019-06-26T13:05:25.158Z,44.39
2019-06-26T13:07:51.799Z,44.54
2019-06-26T13:10:18.495Z,44.33
2019-06-26T13:12:46.031Z,44.36
2019-06-26T13:15:13.133Z,44.28
2019-06-26T13:17:38.537Z,44.52
2019-06-26T13:20:05.145Z,44.29
2019-06-26T13:22:31.856Z,44.11
2019-06-26T13:24:58.529Z,44.12
2019-06-26T13:27:25.160Z,43.91
2019-06-26T13:29:51.820Z,43.40
2019-06-26T13:32:18.494Z,43.57
2019-06-26T13:34:45.129Z,43.63
2019-06-26T13:37:11.772Z,43.76
2019-06-26T13:39:38.440Z,43.92
2019-06-26T13:42:05.078Z,43.72
2019-06-26T13:44:31.747Z,43.25
2019-06-26T13:46:58.463Z,43.03
2019-06-26T13:49:25.194Z,43.09
2019-06-26T13:51:51.787Z,43.24
2019-06-26T13:54:18.490Z,43.29
2019-06-26T13:56:45.090Z,43.17
2019-06-26T13:59:11.748Z,43.01
2019-06-26T14:01:38.400Z,43.13
2019-06-26T14:04:05.074Z,43.42
2019-06-26T14:06:31.718Z,43.49
2019-06-26T14:08:58.387Z,43.22
2019-06-26T14:13:51.736Z,42.90
2019-06-26T14:16:18.407Z,43.02
2019-06-26T14:18:45.211Z,43.02
2019-06-26T14:21:24.925Z,42.77
2019-06-26T14:23:38.520Z,42.79
2019-06-26T14:26:05.179Z,42.82
2019-06-26T14:28:31.839Z,42.90
2019-06-26T14:30:58.471Z,42.70
2019-06-26T14:47:13.756Z,42.51
2019-06-26T14:52:07.110Z,42.81
2019-06-26T14:54:33.760Z,42.90
2019-06-26T14:57:00.465Z,42.47
2019-06-26T14:59:27.135Z,42.82
2019-06-26T15:01:53.815Z,42.79
2019-06-26T15:04:20.506Z,42.79
2019-06-26T15:06:47.179Z,42.90
2019-06-26T15:09:13.977Z,42.55
2019-06-26T15:11:40.635Z,43.18
2019-06-26T15:14:07.326Z,43.08
2019-06-26T15:16:34.005Z,43.24
2019-06-26T15:19:00.770Z,43.30
2019-06-26T15:21:27.446Z,43.25
2019-06-26T15:23:54.105Z,43.33
2019-06-26T15:26:20.848Z,43.03
2019-06-26T15:28:47.459Z,43.00
2019-06-26T15:31:14.133Z,43.07
2019-06-26T15:33:40.864Z,42.86
2019-06-26T15:36:07.516Z,42.80
2019-06-26T15:38:34.194Z,42.83
2019-06-26T15:41:00.863Z,42.91
2019-06-26T15:43:27.512Z,42.57
2019-06-26T15:45:54.183Z,42.59
2019-06-26T15:48:20.948Z,42.69
2019-06-26T15:50:47.623Z,42.37
2019-06-26T15:53:14.258Z,42.58
2019-06-26T15:55:40.943Z,42.34
2019-06-26T16:00:34.323Z,42.41
2019-06-26T16:03:00.931Z,42.55
2019-06-26T16:05:27.748Z,42.76
2019-06-26T16:07:54.393Z,42.54
2019-06-26T16:10:21.058Z,42.33
2019-06-26T16:12:47.708Z,42.31
2019-06-26T16:15:14.360Z,42.21
2019-06-26T16:17:41.032Z,42.15
2019-06-26T16:20:07.679Z,42.05
2019-06-26T16:22:34.343Z,42.05
2019-06-26T16:25:01.009Z,42.31
2019-06-26T16:27:27.699Z,42.95
2019-06-26T16:29:54.343Z,43.08
2019-06-26T16:32:21.022Z,43.32
2019-06-26T16:34:47.717Z,43.92
2019-06-26T16:37:14.437Z,43.70
2019-06-26T16:39:41.095Z,43.24
2019-06-26T16:42:07.754Z,43.19
2019-06-26T16:44:34.412Z,43.28
2019-06-26T16:47:01.097Z,43.10
2019-06-26T16:49:27.767Z,42.94
2019-06-26T16:51:54.444Z,42.95
2019-06-26T16:54:21.109Z,42.70
2019-06-26T16:56:47.770Z,42.34
2019-06-26T16:59:14.458Z,42.23
2019-06-26T17:01:41.147Z,42.03
2019-06-26T17:04:07.814Z,41.89
2019-06-26T17:06:34.466Z,41.89
2019-06-26T17:09:01.162Z,41.84
2019-06-26T17:11:27.854Z,41.80
2019-06-26T17:13:54.530Z,41.54
2019-06-26T17:16:21.200Z,41.61
2019-06-26T17:18:47.883Z,41.51
2019-06-26T17:21:14.539Z,41.55
2019-06-26T17:23:41.220Z,41.49
2019-06-26T17:26:07.916Z,41.51
2019-06-26T17:28:34.583Z,41.37
2019-06-26T17:31:01.239Z,41.28
2019-06-26T17:33:27.898Z,41.27
2019-06-26T17:35:54.566Z,41.43
2019-06-26T17:38:21.279Z,41.26
2019-06-26T17:40:47.937Z,41.20
2019-06-26T17:43:14.606Z,41.42
2019-06-26T17:45:41.270Z,41.21
2019-06-26T17:48:08.001Z,41.00
2019-06-26T17:50:34.643Z,41.52
2019-06-26T17:53:01.304Z,42.24
2019-06-26T17:55:27.955Z,42.66
2019-06-26T17:57:54.638Z,43.02
2019-06-26T18:00:21.299Z,42.81
2019-06-26T18:02:47.961Z,42.79
2019-06-26T18:05:14.730Z,42.63
2019-06-26T18:07:41.403Z,42.80
2019-06-26T18:10:08.102Z,42.94
2019-06-26T18:12:34.758Z,43.10
2019-06-26T18:15:01.424Z,43.26
2019-06-26T18:17:29.409Z,42.99
2019-06-26T18:19:54.759Z,43.04
2019-06-26T18:22:21.418Z,42.97
2019-06-26T18:24:48.113Z,42.90
2019-06-26T18:29:41.442Z,44.62
2019-06-26T18:32:08.097Z,44.31
2019-06-26T18:34:34.764Z,44.30
2019-06-26T18:37:01.416Z,43.97
2019-06-26T18:39:28.151Z,44.11
2019-06-26T18:41:54.785Z,44.12
2019-06-26T18:44:21.465Z,44.12
2019-06-26T18:46:48.171Z,44.26
2019-06-26T18:49:14.825Z,44.13
2019-06-26T18:51:41.475Z,44.42
2019-06-26T18:54:08.187Z,44.46
2019-06-26T18:56:34.826Z,44.33
2019-06-26T18:59:01.595Z,44.06
2019-06-26T19:01:28.303Z,44.31
2019-06-26T19:03:54.949Z,45.34
2019-06-26T19:06:21.630Z,45.66
2019-06-26T19:08:48.282Z,46.07
2019-06-26T19:11:14.950Z,45.82
2019-06-26T19:13:41.596Z,45.57
2019-06-26T19:16:08.257Z,45.55
2019-06-26T19:18:34.916Z,45.44
2019-06-26T19:21:01.687Z,45.52
2019-06-26T19:23:28.352Z,45.25
2019-06-26T19:25:55.011Z,45.59
2019-06-26T19:28:23.216Z,45.17
2019-06-26T19:30:48.404Z,45.01
2019-06-26T19:33:15.044Z,45.08
2019-06-26T19:35:41.810Z,45.65
2019-06-26T19:38:08.495Z,46.90
2019-06-26T19:40:35.168Z,46.72
2019-06-26T19:43:01.925Z,46.42
2019-06-26T19:45:28.511Z,45.83
2019-06-26T19:47:55.161Z,45.87
2019-06-26T19:50:23.523Z,45.83
2019-06-26T19:52:48.487Z,46.08
2019-06-26T19:55:15.169Z,45.81
2019-06-26T20:00:08.512Z,45.66
2019-06-26T20:02:35.148Z,45.89
2019-06-26T20:05:11.474Z,46.07
2019-06-26T20:13:12.806Z,47.51
2019-06-26T20:15:53.407Z,47.10
2019-06-26T20:24:03.532Z,46.60
2019-06-26T20:29:19.659Z,46.13
2019-06-26T20:37:48.955Z,47.94
2019-06-26T20:40:18.857Z,47.95
2019-06-26T20:42:53.525Z,47.74
2019-06-26T20:48:11.153Z,47.16
2019-06-26T20:50:40.436Z,47.08
2019-06-26T20:53:19.854Z,47.16
2019-06-26T21:23:18.821Z,47.58
2019-06-26T21:25:47.678Z,47.61
2019-06-26T21:28:34.874Z,47.51
2019-06-26T21:31:13.581Z,47.51
2019-06-26T21:33:38.686Z,47.58
2019-06-26T21:36:08.169Z,47.25
2019-06-26T21:38:46.570Z,47.54
2019-06-26T21:41:14.932Z,47.22
2019-06-26T21:43:45.851Z,48.04
2019-06-26T21:46:12.661Z,48.80
2019-06-26T21:51:25.207Z,49.09
2019-06-26T21:53:51.984Z,48.75
2019-06-26T21:56:18.861Z,48.51
2019-06-26T21:58:45.575Z,48.23
2019-06-26T22:01:12.272Z,48.03
2019-06-26T22:03:38.996Z,48.39
2019-06-26T22:06:05.777Z,48.23
2019-06-26T22:08:32.427Z,48.15
2019-06-26T22:10:59.093Z,48.13
2019-06-26T22:13:25.753Z,48.07
2019-06-26T22:15:52.423Z,48.01
2019-06-26T22:18:19.139Z,47.99
2019-06-26T22:20:45.809Z,48.00
2019-06-26T22:23:15.445Z,47.96
2019-06-26T22:25:50.884Z,47.87
2019-06-26T22:28:08.781Z,48.05
2019-06-26T22:30:35.455Z,48.16
2019-06-26T22:35:28.785Z,48.08
2019-06-26T22:37:55.474Z,48.08
2019-06-26T22:40:22.193Z,48.04
2019-06-26T22:42:48.838Z,48.02
2019-06-26T22:45:15.511Z,47.99
2019-06-26T22:47:44.443Z,47.99
2019-06-26T22:50:11.122Z,48.14
2019-06-26T22:52:37.792Z,47.99
2019-06-26T22:55:04.452Z,48.13
2019-06-26T22:57:31.132Z,48.04
2019-06-26T22:59:57.806Z,48.12
2019-06-26T23:02:24.469Z,48.12
2019-06-26T23:04:51.154Z,48.19
2019-06-26T23:07:17.808Z,48.16
2019-06-26T23:09:44.585Z,48.11
2019-06-26T23:12:11.250Z,48.31
2019-06-26T23:14:37.927Z,48.18
2019-06-26T23:17:04.599Z,48.37
2019-06-26T23:19:31.258Z,48.25
2019-06-26T23:21:57.950Z,48.14
2019-06-26T23:24:24.601Z,48.35
2019-06-26T23:26:51.284Z,48.31
2019-06-26T23:29:17.935Z,48.33
2019-06-26T23:31:44.635Z,48.35
2019-06-26T23:34:11.293Z,48.36
2019-06-26T23:36:37.977Z,48.30
2019-06-26T23:39:04.634Z,48.41
2019-06-26T23:43:57.966Z,48.48
2019-06-26T23:46:24.647Z,48.40
2019-06-26T23:48:51.310Z,48.44
2019-06-26T23:51:17.950Z,48.46
2019-06-26T23:56:11.329Z,48.49
2019-06-26T23:58:37.993Z,48.43
